Team logos
Guidelines for entries Team Leaderboard Add or Update a Person FAQ
Jun 2008 - 30 minutes unrestricted
This challenge was chosen by Free Spirits. It's your best distance for 30 minutes. There are no stroke rate restrictions.
Most Recent EntriesAdd/Update an Entry
DateNameCatTeamResult
2013-03-01DJMarksMHWTPaddy Power 7646
2008-07-06Ellen DollarFHWTRowPro Rowers 5914
2008-07-06James SteigerMHWTRowPro Rowers 7231
2008-07-06Helen HughesFLWTPaddy Power 7277
2008-07-05truronian63MHWTFree Spirits 6838
Bold = new time; italic = updated time
 
Current Leaderboard
Names in blue italics have added or updated their times within the past 24 hours.
#NameCatTeamResultPacePower
1Graham BentonMMAD I 9100   1:38.9  361.8 
2Tony LarkmanMMAD I 9017   1:39.8  352.0 
3Nik FlemingMMAD I 8953   1:40.5  344.5 
4Simon GoughMTeam Oarsome I 8871   1:41.5  335.2 
5Nick WakefordMFree Spirits I 8856   1:41.6  333.5 
6olly12MTeam Oarsome I 8840   1:41.8  331.7 
7Erik PedersenMFree Spirits I 8827   1:42.0  330.2 
8Al TaylorMTeam Oarsome I 8791   1:42.4  326.2 
9Dave MarshallMMAD II 8790   1:42.4  326.1 
10sjoerd plagmeijerMFree Spirits I 8784   1:42.5  325.4 
11Andy SangsterMMAD II 8744   1:42.9  321.0 
12Pete MarstonMMAD II 8732   1:43.1  319.7 
13gunslinger_MFree Spirits II 8730   1:43.1  319.4 
14Stuart BizzarrimTeam Oarsome I 8693   1:43.5  315.4 
15_Andreas van TonderMLowveld IRC I 8685   1:43.6  314.5 
16Danny GrahamMTeam Oarsome II 8640   1:44.2  309.7 
17Matthias AuermIndependent I 8637   1:44.2  309.3 
18_phil_MSub 7 I 8612   1:44.5  306.7 
19johnglynnMFree Spirits II 8605   1:44.6  305.9 
20Attila KarpatiMFree Spirits II 8601   1:44.6  305.5 
21Skip DonnellyMAge Without Limits I 8596   1:44.7  305.0 
22Julian TomkinsonMTeam Oarsome II 8595   1:44.7  304.8 
23Matthew BalchMTeam Oarsome II 8586   1:44.8  303.9 
24Mikkel Elles°e Hansen_MFree Spirits III 8545   1:45.3  299.6 
25SpikeolaMFree Spirits III 8523   1:45.6  297.2 
26David Chmilowskyj (Eh!)MThe Eh! Team I 8514   1:45.7  296.3 
27Toby SmithmIndependent I 8514   1:45.7  296.3 
28Brendan StaplesMFree Spirits III 8502   1:45.9  295.1 
29Gregory Cook (ind)mIndependent I 8497   1:45.9  294.5 
30gianmaria grassiME.R.G. I 8488   1:46.0  293.6 
31Chris BrettMMAD III 8469   1:46.3  291.6 
32John O'GradyMMAD III 8455   1:46.4  290.2 
33Andrew RichardsMSub 7 I 8442   1:46.6  288.9 
34Greg TraharmAge Without Limits I 8428   1:46.8  287.4 
35Nick RockliffMTeam Oarsome III 8427   1:46.8  287.3 
36Robert BaldwinMFree Spirits IV 8424   1:46.8  287.0 
37Irish DaveMPaddy Power I 8421   1:46.9  286.7 
38Mark MitchellmMAD I 8419   1:46.9  286.5 
39Kyle PeabodymHell on the Hudson I 8399   1:47.2  284.5 
40BartManMFree Spirits IV 8396   1:47.2  284.2 
41Neil HarriganMPaddy Power I 8381   1:47.4  282.6 
42Ray PrimettMAge Without Limits I 8368   1:47.6  281.3 
43Graham ToddMTeam Oarsome III 8364   1:47.6  280.9 
44Bruno La PlacaME.R.G. I 8340   1:47.9  278.5 
45Andrew MudgeMSub 7 I 8337   1:48.0  278.2 
46Dan BurpeeMSub 7 II 8331   1:48.0  277.6 
47KirbytmFree Spirits I 8305   1:48.4  275.0 
48Robert T SmithmSub 7 I 8276   1:48.7  272.1 
49Phil TilleyMTaff Attack Racing I 8272   1:48.8  271.8 
50Peter SkeneMSub 7 II 8263   1:48.9  270.9 
51Martin PennelmSub 7 II 8252   1:49.1  269.8 
52Paul Lancaster (lwt)mTeam Oarsome II 8251   1:49.1  269.7 
53Sam White newmSub 7 II 8248   1:49.1  269.4 
54Warren MatthewsMSub 7 III 8238   1:49.2  268.4 
55kieron caseyMSub 7 III 8235   1:49.3  268.1 
56Boris BossimFree Spirits II 8234   1:49.3  268.0 
57Alessandro GianniniME.R.G. I 8232   1:49.3  267.8 
58Mark EvansMFree Spirits IV 8229   1:49.4  267.5 
59Little ChrismThe Banana Boat I 8227   1:49.4  267.3 
60Shaw GoodwinMTaff Attack Racing I 8217   1:49.5  266.4 
61Seb MillerMFree Spirits V 8212   1:49.6  265.9 
62Tim PikeMMAD III 8211   1:49.6  265.8 
63Jonny LearMFree Spirits V 8210   1:49.6  265.7 
64Thomas W-PMFree Spirits V 8200   1:49.8  264.7 
65Dave "Ding Dong" BellMTeam Oarsome III 8200   1:49.8  264.7 
66Clive StonerMAge Without Limits I 8196   1:49.8  264.3 
67Kev OwenmTaff Attack Racing I 8192   1:49.9  263.9 
68Jonathan TurnsMSub 7 III 8179   1:50.0  262.7 
69Mark KeownMAge Without Limits II 8175   1:50.1  262.3 
70Tony GreenMSub 7 IV 8162   1:50.3  261.1 
71Andy BurrowsMTeam Oarsome IV 8160   1:50.3  260.9 
72John Van BlomMTeam Oarsome IV 8159   1:50.3  260.8 
73Simon BarnesmSub 7 III 8156   1:50.3  260.5 
74GrahamPMMAD IV 8150   1:50.4  259.9 
75ElchemistmTeam Oarsome III 8141   1:50.6  259.0 
76Guillaume DauphinMPaddy Power I 8136   1:50.6  258.6 
77Gordon McKellarMSub 7 IV 8124   1:50.8  257.4 
78Claudio VaramoME.R.G. II 8116   1:50.9  256.7 
79chad_gossMRowPro Rowers I 8104   1:51.1  255.5 
80Jon BoneMTeam Oarsome IV 8102   1:51.1  255.3 
81Gerald SaalfeldMAge Without Limits II 8096   1:51.2  254.8 
82Emanuele Di RaffaeleME.R.G. II 8095   1:51.2  254.7 
83_Hennie MartiniMSub 7 IV 8088   1:51.3  254.0 
84OranjmIndependent I 8087   1:51.3  253.9 
85Petr OlivamFree Spirits III 8084   1:51.3  253.6 
86Peter ByrneMForum Flyers I 8080   1:51.4  253.3 
87Al HallbergMForum Flyers I 8080   1:51.4  253.3 
88Matt MMMAD IV 8066   1:51.6  252.0 
89Steve SmithMFree Spirits VI 8064   1:51.6  251.8 
90George WeekesMFree Spirits VI 8059   1:51.7  251.3 
91Walter FieldMThe Eh! Team I 8054   1:51.7  250.8 
92Gustav SmookmThe Tsotsies I 8051   1:51.8  250.5 
93Nico BeekMAge Without Limits II 8050   1:51.8  250.5 
94Andrea CarbonemE.R.G. I 8050   1:51.8  250.5 
95Vincent BrunningmAge Without Limits II 8049   1:51.8  250.4 
96Dan AppsMFree Spirits VI 8045   1:51.9  250.0 
97Will HaskellmForum Flyers I 8045   1:51.9  250.0 
98Rick DuffieldMSub 7 V 8041   1:51.9  249.6 
99Neil PridhamMFree Spirits VII 8032   1:52.1  248.8 
100Chris Mizen.mMAD II 8024   1:52.2  248.0 
101Andy "Ginster" GouldMIndependent II 8023   1:52.2  247.9 
102Kieran CahillmMAD III 8022   1:52.2  247.8 
103Joe VanischakMRowPro Rowers I 8021   1:52.2  247.8 
104Little Phill2MThe Banana Boat I 8020   1:52.2  247.7 
105Mike HagenmThe Eh! Team I 8016   1:52.3  247.3 
106Jesper Theil HansenMFree Spirits VII 8010   1:52.4  246.7 
107Kris KuzniarmForum Flyers I 8010   1:52.4  246.7 
108Gerard RobinsonmFree Spirits IV 8008   1:52.4  246.6 
109Michael RMIndependent II 8001   1:52.5  245.9 
110Dave SpeedMTeam Oarsome V 7984   1:52.7  244.3 
111Felton HumbleMFree Spirits VII 7970   1:52.9  243.1 
112ZaxMSub 7 V 7960   1:53.1  242.1 
113William DocterMFree Spirits VIII 7957   1:53.1  241.9 
114Jef HutchbymSub 7 IV 7956   1:53.1  241.8 
115Raoul WiartMForum Flyers II 7950   1:53.2  241.2 
116alan wisniewskiMFree Spirits VIII 7948   1:53.2  241.1 
117Jon GoodallMMAD IV 7948   1:53.2  241.1 
118AP Dave SMAir Products I 7946   1:53.3  240.9 
119john choiceMAge Without Limits III 7934   1:53.4  239.8 
120Herman de BoermC2TweetCrew I 7927   1:53.5  239.1 
121MaarsmPaddy Power I 7915   1:53.7  238.1 
122Joshua PicardMAge Without Limits III 7891   1:54.1  235.9 
123Gifford LewisMFree Spirits VIII 7875   1:54.3  234.5 
124Jonathan StellingMFree Spirits IX 7874   1:54.3  234.4 
125Matt NewmanmTeam Oarsome IV 7872   1:54.3  234.2 
126Chris AdamsMTaff Attack Racing I 7864   1:54.4  233.5 
127_Rowland Hills [S7]MSub 7 V 7863   1:54.5  233.4 
128Rod Chinn HWT (SUB7)MSub 7 VI 7862   1:54.5  233.3 
129Dave HallMIndependent II 7861   1:54.5  233.2 
130graham maddisonMAge Without Limits III 7854   1:54.6  232.6 
131Ant StansbieMSub 7 VI 7853   1:54.6  232.5 
132Aivar VausMS§udespinning Estonia I 7853   1:54.6  232.5 
133Iain MackieMAIRC I 7850   1:54.6  232.2 
134Marc BlackburnmForum Flyers II 7847   1:54.7  232.0 
135GeorgeBinghamMSub 7 VI 7845   1:54.7  231.8 
136Peter TullettmFree Spirits V 7832   1:54.9  230.7 
137Steve BloggMFree Spirits IX 7830   1:54.9  230.5 
138Paul McNeillMSub 7 VII 7819   1:55.1  229.5 
139KiwiMForum Flyers II 7818   1:55.1  229.4 
140Bob LeeMIndependent III 7809   1:55.3  228.6 
141AshMTeam Oarsome V 7808   1:55.3  228.5 
142John FerdinandomForum Flyers II 7805   1:55.3  228.3 
143Pantin HeavileemMAD IV 7794   1:55.5  227.3 
144David TaylorMFree Spirits IX 7789   1:55.5  226.9 
145James HerbisonMAge Without Limits IV 7787   1:55.6  226.7 
146Michael AndersonMRed Line Rowers I 7779   1:55.7  226.0 
147Tim SladeMFree Spirits X 7779   1:55.7  226.0 
148Jean-Marc HurniMAge Without Limits IV 7772   1:55.8  225.4 
149Kees VerhoevenMDutch RowPros I 7761   1:56.0  224.4 
150Chris WhaleMForum Flyers III 7756   1:56.0  224.0 
151Phil HewittMFree Spirits X 7752   1:56.1  223.7 
152Thierry GOURSOLLEMFIRT I 7749   1:56.1  223.4 
153Andy BellisMAir Products I 7745   1:56.2  223.1 
154David PlumbmFree Spirits VI 7741   1:56.3  222.7 
155Graham HallmTeam Oarsome V 7739   1:56.3  222.5 
156NC StanleyMAge Without Limits IV 7729   1:56.4  221.7 
157Andy HallmRed Line Rowers I 7727   1:56.5  221.5 
158Andrew StanwayMFree Spirits X 7724   1:56.5  221.2 
159Bram JagtmAge Without Limits III 7723   1:56.5  221.2 
160RocketMTeam Oarsome V 7712   1:56.7  220.2 
161Joe A KeatingmPaddy Power II 7710   1:56.7  220.0 
162Paul VictoryMFree Spirits XI 7709   1:56.7  220.0 
163PaddyMPaddy Power II 7707   1:56.8  219.8 
164DLCIanNMSub 7 VII 7707   1:56.8  219.8 
165Vaclav BrazdaMAge Without Limits V 7705   1:56.8  219.6 
166Steve PricemMAD V 7703   1:56.8  219.4 
167Steve F.mFree Spirits VII 7703   1:56.8  219.4 
168kingy2mFree Spirits VIII 7693   1:57.0  218.6 
169Chris BollenMFree Spirits XI 7685   1:57.1  217.9 
170Barry TurnermSub 7 V 7675   1:57.3  217.1 
171Dave HafnerMTeam Rowbo I 7674   1:57.3  217.0 
172John NeufeldtMRowPro Rowers I 7672   1:57.3  216.8 
173Mike WrennMSub 7 VII 7669   1:57.4  216.5 
174Andrea CollettamE.R.G. II 7646   1:57.7  214.6 
175DJMarksMPaddy Power II 7646   1:57.7  214.6 
176David NewtonMAge Without Limits V 7636   1:57.9  213.8 
177Thomas O'KeefeMAge Without Limits V 7635   1:57.9  213.7 
178Randy LockeMAge Without Limits VI 7634   1:57.9  213.6 
179Massimiliano De RosaME.R.G. II 7630   1:58.0  213.3 
180Keith PaceyMPaddy Power II 7630   1:58.0  213.3 
181Aidan LowsonMAir Products I 7628   1:58.0  213.1 
182Luigi D' OttavioME.R.G. III 7628   1:58.0  213.1 
183jkathiosMFree Spirits XI 7626   1:58.0  212.9 
184Gwyn SamuelMTaff Attack Racing II 7624   1:58.0  212.8 
185JohnnyPMPaddy Power III 7621   1:58.1  212.5 
186Des RichardsonMTaff Attack Racing II 7620   1:58.1  212.4 
187DavidaldridgemSub 7 VI 7620   1:58.1  212.4 
188maurizio varchettaME.R.G. III 7614   1:58.2  211.9 
189John CarterMAge Without Limits VI 7614   1:58.2  211.9 
190Richard GambleMFree Spirits XII 7609   1:58.3  211.5 
191Gary DaughertymRowPro Rowers I 7608   1:58.3  211.4 
192Steve BurrowsmPaddy Power III 7607   1:58.3  211.3 
193Alan StrangmIndependent II 7604   1:58.4  211.1 
194Marco RaspamE.R.G. III 7603   1:58.4  211.0 
195Adriano DurantemE.R.G. III 7601   1:58.4  210.8 
196The RefmForum Flyers III 7591   1:58.6  210.0 
197Stuart McmMAD V 7590   1:58.6  209.9 
198john.probascoMAge Without Limits VI 7583   1:58.7  209.3 
199John HallasMSub 7 VIII 7582   1:58.7  209.3 
200Roger BangaymFree Spirits IX 7575   1:58.8  208.7 
201David JanssenMAge Without Limits VII 7575   1:58.8  208.7 
202Steve MotznyMAge Without Limits VII 7574   1:58.8  208.6 
203Matthew WoodmSub 7 VII 7573   1:58.8  208.5 
204Tom ZalmstraMRowPro Rowers II 7573   1:58.8  208.5 
205Trevor JonesMFree Spirits XII 7570   1:58.9  208.3 
206steve hillMFree Spirits XII 7565   1:59.0  207.9 
207Laura ErhartFRowPro Rowers I 7555   1:59.1  207.0 
208Kalev VapperMAge Without Limits VII 7536   1:59.4  205.5 
209kestermFree Spirits X 7532   1:59.5  205.1 
210andrea lelioME.R.G. IV 7530   1:59.5  205.0 
211Andrew BainesmRowPro Rowers II 7528   1:59.6  204.8 
212Charlie PicardMAge Without Limits VIII 7525   1:59.6  204.6 
213Tony WalshMAge Without Limits VIII 7524   1:59.6  204.5 
214Patrick ConnorsMAge Without Limits VIII 7518   1:59.7  204.0 
215AndrewPJonesMSub 7 VIII 7516   1:59.7  203.8 
216Grace MalacridaFForum Flyers I 7511   1:59.8  203.4 
217Dave LukasikMAge Without Limits IX 7510   1:59.8  203.4 
218DLCColinBMDLCBromsgrove I 7505   1:59.9  203.0 
219Graeme WilsonMAir Products II 7496   2:00.1  202.2 
220Keith PritchardMFree Spirits XIII 7483   2:00.3  201.2 
221colin culyerMThe Banana Boat I 7472   2:00.4  200.3 
222Gerry KeatingMPaddy Power III 7460   2:00.6  199.3 
223_Dougie Lawson [S7]MSub 7 VIII 7449   2:00.8  198.4 
224Joan Van BlomfTeam Oarsome I 7449   2:00.8  198.4 
225DLCAndySmDLCBromsgrove I 7448   2:00.8  198.4 
226Ben ReamForum Flyers III 7436   2:01.0  197.4 
227Barry bazza59 ReynorMPaddy Power III 7421   2:01.3  196.2 
228DLCAndyWmDLCBromsgrove I 7419   2:01.3  196.1 
229Matt BrownMSub 7 IX 7415   2:01.4  195.7 
230fabrizio maniscalcomE.R.G. IV 7410   2:01.5  195.3 
231Paul GouldMFree Spirits XIII 7406   2:01.5  195.0 
232ChippyMTaff Attack Racing II 7403   2:01.6  194.8 
233Snail SpaceMIndependent III 7401   2:01.6  194.6 
234Allan MoltmakerMSub 7 IX 7400   2:01.6  194.6 
235Giovanni CiccuME.R.G. IV 7392   2:01.8  193.9 
236GerhardMRowPro Rowers II 7378   2:02.0  192.8 
237Nigel ScottmFree Spirits XI 7375   2:02.0  192.6 
238Gregor AndrewsMFree Spirits XIII 7372   2:02.1  192.4 
239Rick BaykomForum Flyers III 7362   2:02.2  191.6 
240Kat AstleyfMAD I 7352   2:02.4  190.8 
241Eddie WoodardMAge Without Limits IX 7352   2:02.4  190.8 
242Keith ConnollymPaddy Power IV 7345   2:02.5  190.2 
243Mikael CaloniusMForum Flyers IV 7328   2:02.8  188.9 
244CabrayMAge Without Limits IX 7324   2:02.9  188.6 
245Chuck RoggeMAge Without Limits X 7310   2:03.1  187.5 
246John RuppmIndependent III 7306   2:03.2  187.2 
247DarinMSub 7 IX 7305   2:03.2  187.2 
248Dave MooresMRowPro Rowers II 7299   2:03.3  186.7 
249Arlene WadefIndependent I 7295   2:03.4  186.4 
250Little MalcolmmThe Banana Boat I 7283   2:03.6  185.5 
251Jon KilleenMFree Spirits XIV 7281   2:03.6  185.3 
252Helen TilleyFTaff Attack Racing I 7278   2:03.7  185.1 
253Danilo RovelliME.R.G. IV 7277   2:03.7  185.0 
254Helen HughesfPaddy Power I 7277   2:03.7  185.0 
255KirkmThe Eh! Team I 7275   2:03.7  184.9 
256Gordon CantlayMAge Without Limits X 7268   2:03.8  184.3 
257David R. HerzMAge Without Limits X 7265   2:03.9  184.1 
258Les WhitakerMRowPro Rowers III 7264   2:03.9  184.0 
259Joi BearFAge Without Limits I 7264   2:03.9  184.0 
260Roberto IoriME.R.G. V 7262   2:03.9  183.9 
261Paul VenablesMTaff Attack Racing III 7254   2:04.1  183.3 
262DLCPeteMMDLCBromsgrove I 7250   2:04.1  183.0 
263Mike BardeemAge Without Limits IV 7243   2:04.3  182.4 
264owain_thomasMFree Spirits XIV 7242   2:04.3  182.4 
265kurtmFree Spirits XII 7235   2:04.4  181.8 
266ShirleyFForum Flyers II 7235   2:04.4  181.8 
267Little IanMThe Banana Boat II 7232   2:04.4  181.6 
268James SteigerMRowPro Rowers III 7231   2:04.5  181.5 
269Kelly SapsfordfMAD II 7229   2:04.5  181.4 
270Marc ThompsonMRowPro Rowers III 7227   2:04.5  181.2 
271Tom BegleyMFree Spirits XIV 7227   2:04.5  181.2 
272Jackie HicksFIndependent II 7225   2:04.6  181.1 
273Ralph WernerMRowPro Rowers IV 7224   2:04.6  181.0 
274Russell GardenerMSub 7 X 7221   2:04.6  180.8 
275Jo LyonsFMAD III 7211   2:04.8  180.0 
276schfarrisFFree Spirits I 7203   2:04.9  179.4 
277Susan JanssenfAge Without Limits II 7202   2:05.0  179.3 
278Taru CaloniusFForum Flyers III 7193   2:05.1  178.7 
279Ted HalversonMAge Without Limits XI 7188   2:05.2  178.3 
280Tom RawlsMForum Flyers IV 7180   2:05.3  177.7 
281Gustavo GrodnitzkyMAge Without Limits XI 7179   2:05.4  177.6 
282Paul GallifordMForum Flyers IV 7177   2:05.4  177.5 
283Emma O'HaraFTeam Oarsome II 7169   2:05.5  176.9 
284MatteomIndependent III 7169   2:05.5  176.9 
285Richard GoffMAge Without Limits XI 7166   2:05.6  176.7 
286Lady Tracy WatkinsFSub 7 I 7140   2:06.1  174.8 
287Bill BurkemRowPro Rowers III 7139   2:06.1  174.7 
288Adrian MillarMTaff Attack Racing III 7136   2:06.1  174.5 
289eugene ponsMAge Without Limits XII 7124   2:06.3  173.6 
290Trevor ReevesMThe Eh! Team II 7120   2:06.4  173.3 
291DLCWillCMDLCBromsgrove II 7117   2:06.5  173.1 
292Charles KaiserMThe Eh! Team II 7116   2:06.5  173.0 
293FunkyrowerMGee Crew I 7111   2:06.6  172.6 
294J. Arthur SholzmAge Without Limits V 7108   2:06.6  172.4 
295Jim McLoughlinMAge Without Limits XII 7100   2:06.8  171.8 
296chris archerMFree Spirits XV 7097   2:06.8  171.6 
297Edward MarosMAge Without Limits XII 7092   2:06.9  171.3 
298Stephen GowerMRowPro Rowers IV 7082   2:07.1  170.5 
299John RuleMAge Without Limits XIII 7079   2:07.1  170.3 
300Bizzarri Maria TeresaFE.R.G. I 7078   2:07.2  170.2 
301davide.nassomE.R.G. V 7069   2:07.3  169.6 
302Alistair SladeMFree Spirits XV 7068   2:07.3  169.5 
303Mark WestMRowPro Rowers IV 7056   2:07.6  168.7 
304Antonio Carlos CardosomRowPro Rowers IV 7056   2:07.6  168.7 
305Ronald HeadMAge Without Limits XIII 7054   2:07.6  168.5 
306PollybmAge Without Limits VI 7054   2:07.6  168.5 
307Michelle HoughtonFFree Spirits II 7053   2:07.6  168.4 
308Steve GmForum Flyers IV 7050   2:07.7  168.2 
309kamdo (k mikesell)mTeam Rowbo I 7046   2:07.7  167.9 
310Kim CaloniusMForum Flyers V 7044   2:07.8  167.8 
311Pete LoeffenmRowPro Rowers V 7035   2:07.9  167.2 
312John StockMForum Flyers V 7032   2:08.0  166.9 
313ElliePFMAD IV 7031   2:08.0  166.9 
314Murphy PepperMAge Without Limits XIII 7030   2:08.0  166.8 
315RoccomIndependent IV 7022   2:08.2  166.2 
316Super KirkyMMAD V 7020   2:08.2  166.1 
317Arno CaloniusmForum Flyers V 7020   2:08.2  166.1 
318Jemma CFMAD V 7016   2:08.3  165.8 
319roberto proiettiME.R.G. V 7016   2:08.3  165.8 
320UBYMAge Without Limits XIV 7012   2:08.4  165.5 
321Gene KelleymAge Without Limits VII 7012   2:08.4  165.5 
322David HowellsMAge Without Limits XIV 7004   2:08.5  165.0 
323Alistair BlackmScotland the Wave I 6995   2:08.7  164.3 
324BeckyLindsayFSub 7 II 6980   2:08.9  163.3 
325Little LeeMThe Banana Boat II 6976   2:09.0  163.0 
326Carla Stein (seat5)FTaff Attack Racing II 6973   2:09.1  162.8 
327Carol WoodwardfSub 7 III 6970   2:09.1  162.6 
328SuemogFSub 7 IV 6961   2:09.3  161.9 
329LuanneMfAge Without Limits III 6948   2:09.5  161.0 
330Bruno CiucciarellimE.R.G. V 6936   2:09.8  160.2 
331shane shawMForum Flyers V 6933   2:09.8  160.0 
332Graham WebberMFree Spirits XV 6928   2:09.9  159.6 
333Peter-FitzgeraldMAge Without Limits XIV 6922   2:10.0  159.2 
334Colin S JonesmAge Without Limits VIII 6920   2:10.1  159.1 
335CrozFFree Spirits III 6896   2:10.5  157.4 
336siobhan wFMAD V 6891   2:10.6  157.1 
337Brian GriffithsMFree Spirits XVI 6876   2:10.9  156.1 
338Catherine SutherlandFTeam Oarsome III 6863   2:11.1  155.2 
339Debbie BarberFForum Flyers IV 6846   2:11.5  154.0 
340DLCLizGfDLCBromsgrove I 6842   2:11.5  153.8 
341Kinley GreggFIndependent III 6838   2:11.6  153.5 
342truronian63MFree Spirits XVI 6838   2:11.6  153.5 
343giampaolo cuimE.R.G. VI 6836   2:11.7  153.4 
344Susan YoungFSub 7 V 6831   2:11.8  153.0 
345Liz GreenfSub 7 VI 6816   2:12.0  152.0 
346Rose Metallif#TokyRow I 6815   2:12.1  152.0 
347DLCMattHMDLCBromsgrove II 6807   2:12.2  151.4 
348Pam LoeffenFRowPro Rowers II 6799   2:12.4  150.9 
349John ViaMAge Without Limits XV 6792   2:12.5  150.4 
350PaulHMForum Flyers VI 6790   2:12.5  150.3 
351Dona HallFSub 7 VII 6778   2:12.8  149.5 
352Little JimmyMGee Crew I 6777   2:12.8  149.4 
353Philip PricemFree Spirits XIII 6767   2:13.0  148.8 
354Kay HughesFTeam Oarsome IV 6762   2:13.1  148.4 
355KerryBFThe Banana Boat I 6756   2:13.2  148.1 
356little weed TOfTeam Oarsome V 6743   2:13.5  147.2 
357Robyn HuttenmeisterfAge Without Limits IV 6736   2:13.6  146.7 
358Natalie GriffinFAge Without Limits V 6735   2:13.6  146.7 
359Anne BadanesFRowPro Rowers III 6725   2:13.8  146.0 
360Stephen ScarfeMFree Spirits XVI 6725   2:13.8  146.0 
361Joe GutstadtmAge Without Limits IX 6705   2:14.2  144.7 
362Wayne GallaschmFree Spirits XIV 6700   2:14.3  144.4 
363BrendinMTaff Attack Racing III 6697   2:14.4  144.2 
364Judit NagyFFree Spirits IV 6681   2:14.7  143.2 
365Margie DavisFRowPro Rowers IV 6670   2:14.9  142.5 
366DLCJudithEFDLCBromsgrove II 6651   2:15.3  141.3 
367Richard ElstonmFree Spirits XV 6648   2:15.4  141.1 
368Larry CharlesMAge Without Limits XV 6646   2:15.4  140.9 
369Annie TakFDutch RowPros I 6644   2:15.5  140.8 
370Sander VausmAge Without Limits X 6643   2:15.5  140.7 
371Siim VausMAge Without Limits XV 6637   2:15.6  140.4 
372DLCKimEfDLCBromsgrove II 6634   2:15.7  140.2 
373Bert KeelmAge Without Limits XI 6632   2:15.7  140.0 
374jon mooreMAge Without Limits XVI 6617   2:16.0  139.1 
375Cynthia RuniaFAge Without Limits VI 6607   2:16.2  138.5 
376Libby JonesfAge Without Limits VII 6583   2:16.7  137.0 
377daniele perilliME.R.G. VI 6566   2:17.1  135.9 
378sergio pepeME.R.G. VI 6560   2:17.2  135.5 
379Greta VausFAge Without Limits VIII 6557   2:17.3  135.3 
380Richard HallMSub 7 X 6525   2:17.9  133.4 
381Michelle O'KeefeFAge Without Limits IX 6512   2:18.2  132.6 
382John CousinsmThe Eh! Team II 6503   2:18.4  132.0 
383John StahlMAge Without Limits XVI 6457   2:19.4  129.3 
384KIm EdmundsfSub 7 VIII 6437   2:19.8  128.1 
385Tania CunninghamFThe Eh! Team I 6404   2:20.5  126.1 
386Steve AustinMAge Without Limits XVI 6400   2:20.6  125.9 
387Ilaria VergarafE.R.G. II 6400   2:20.6  125.9 
388pasquale pignataroME.R.G. VI 6394   2:20.8  125.5 
389Maryann DonnellyfAge Without Limits X 6389   2:20.9  125.2 
390Anna BongaFThe Eh! Team II 6353   2:21.7  123.1 
391Eva JacobsFAge Without Limits XI 6351   2:21.7  123.0 
392fieFPaddy Power II 6346   2:21.8  122.7 
393paola pintofE.R.G. III 6345   2:21.8  122.6 
394BirkyboymSub 7 VIII 6340   2:22.0  122.4 
395HeidibFSub 7 IX 6339   2:22.0  122.3 
396DLCJohnWmDLCBromsgrove II 6320   2:22.4  121.2 
397DLCJuliaJFDLCBromsgrove III 6313   2:22.6  120.8 
398LizbfThe Banana Boat II 6299   2:22.9  120.0 
399Pat_WalshMAge Without Limits XVII 6282   2:23.3  119.0 
400katia mercurioFE.R.G. IV 6263   2:23.7  117.9 
401Ann K. SeidmanFFree Spirits V 6239   2:24.3  116.6 
402DLCPaulStampsMDLCBromsgrove III 6237   2:24.3  116.5 
403Gaye McOnieFFree Spirits VI 6233   2:24.4  116.3 
404Jack MayormThe Banana Boat II 6201   2:25.1  114.5 
405Denise JonesFFree Spirits VII 6175   2:25.7  113.0 
406Beth McFaddenFAge Without Limits XII 6157   2:26.2  112.1 
407Anita CalcraftFFree Spirits VIII 6151   2:26.3  111.7 
408DLCAnnFFDLCBromsgrove III 6144   2:26.5  111.4 
409Steve CytrynowiczMIndependent IV 6134   2:26.7  110.8 
410DLCTheresaPfDLCBromsgrove III 6134   2:26.7  110.8 
411Kate WakefordfFree Spirits IX 6131   2:26.8  110.6 
412Rita MondeFFree Spirits X 6128   2:26.9  110.5 
413Andy RutkiewicMTeam Rowbo I 6080   2:28.0  107.9 
414Richard HainesMForum Flyers VI 6078   2:28.1  107.8 
415DLCMikeSMDLCBromsgrove III 6056   2:28.6  106.6 
416Kathy PolletFForum Flyers V 5995   2:30.1  103.4 
417Wendy MatthewsFSub 7 X 5995   2:30.1  103.4 
418DLCRuthMFDLCBromsgrove IV 5973   2:30.7  102.3 
419fabio falangaME.R.G. VII 5971   2:30.7  102.2 
420manuela uccelloFE.R.G. V 5945   2:31.4  100.9 
421DLCNatalieSFDLCBromsgrove IV 5932   2:31.7  100.2 
422Ellen DollarFRowPro Rowers V 5914   2:32.2  99.3 
423Jemma HallfTeam Oarsome VI 5879   2:33.1  97.6 
424Christine GoodwinFTaff Attack Racing III 5866   2:33.4  96.9 
425silvia demariafE.R.G. VI 5844   2:34.0  95.8 
426DLCLucyWFDLCBromsgrove IV 5825   2:34.5  94.9 
427DLCJosieSFDLCBromsgrove IV 5818   2:34.7  94.6 
428mjpermuthfAge Without Limits XII 5807   2:35.0  94.0 
429Sarah KeelfAge Without Limits XIII 5788   2:35.5  93.1 
430JudithWilkinsonFAge Without Limits XIII 5756   2:36.4  91.6 
431Jennifer AbbottFAge Without Limits XIV 5746   2:36.6  91.1 
432Christine HurnifAge Without Limits XIV 5720   2:37.3  89.9 
433maurizio cimagliamE.R.G. VII 5714   2:37.5  89.6 
434Linzi JohnstonFFree Spirits XI 5699   2:37.9  88.9 
435Tamsin W-PfFree Spirits XII 5699   2:37.9  88.9 
436DLCKimWfDLCBromsgrove IV 5545   2:42.3  81.9 
437elena morgioniFE.R.G. VII 5503   2:43.5  80.0 
438Julie HallfFree Spirits XIII 5428   2:45.8  76.8 
439deb bettinsonfFree Spirits XIV 5427   2:45.8  76.7 
440Lisa DocterFFree Spirits XV 5409   2:46.4  76.0 
441Jeff KelleyMAge Without Limits XVII 5311   2:49.5  71.9 
442Beryl ArcherfFree Spirits XVI 5303   2:49.7  71.6 
443daniela cellifE.R.G. VII 5169   2:54.1  66.3 
444rosa maria piperataFE.R.G. VII 5093   2:56.7  63.4 
445Darlene_BrennanfAge Without Limits XV 5071   2:57.5  62.6 
446Dan FarmermForum Flyers VI 4938   3:02.3  57.8 
447Kasper VausmAge Without Limits XV 4670   3:12.7  48.9 
448Anna FarmerFFree Spirits XVI 4428   3:23.3  41.7 
1
77 pts
MAD I 8568.2m
Graham Benton (H)
Tony Larkman (H)
Nik Fleming (H)
Mark Mitchell (L)
Kat Astley (F)
2
76 pts
Team Oarsome I 8528.8m
Simon Gough (H)
olly12 (H)
Al Taylor (H)
Stuart Bizzarri (L)
Joan Van Blom (F)
3
75 pts
Free Spirits I 8395m
Nick Wakeford (H)
Erik Pedersen (H)
sjoerd plagmeijer (H)
Kirbyt (L)
schfarris (F)
4
74 pts
MAD II 8303.8m
Dave Marshall (H)
Andy Sangster (H)
Pete Marston (H)
Chris Mizen. (L)
Kelly Sapsford (F)
5
73 pts
Team Oarsome II 8248.2m
Danny Graham (H)
Julian Tomkinson (H)
Matthew Balch (H)
Paul Lancaster (lwt) (L)
Emma O'Hara (F)
6
72 pts
Free Spirits II 8244.6m
gunslinger_ (H)
johnglynn (H)
Attila Karpati (H)
Boris Bossi (L)
Michelle Houghton (F)
7
71 pts
Independent I 8206m
Matthias Auer (L)
Toby Smith (L)
Gregory Cook (ind) (L)
Oranj (L)
Arlene Wade (F)
8
70 pts
Age Without Limits I 8170.4m
Skip Donnelly (H)
Ray Primett (H)
Clive Stoner (H)
Greg Trahar (L)
Joi Bear (F)
9
69 pts
Sub 7 I 8161.4m
_phil_ (H)
Andrew Richards (H)
Andrew Mudge (H)
Robert T Smith (L)
Lady Tracy Watkins (F)
10
68 pts
Free Spirits III 8110m
Mikkel Elles°e Hansen_ (H)
Spikeola (H)
Brendan Staples (H)
Petr Oliva (L)
Croz (F)
11
67 pts
MAD III 8073.6m
Chris Brett (H)
John O'Grady (H)
Tim Pike (H)
Kieran Cahill (L)
Jo Lyons (F)
12
66 pts
E.R.G. I 8037.6m
gianmaria grassi (H)
Bruno La Placa (H)
Alessandro Giannini (H)
Andrea Carbone (L)
Bizzarri Maria Teresa (F)
13
65 pts
Paddy Power I 8026m
Irish Dave (H)
Neil Harrigan (H)
Guillaume Dauphin (H)
Maars (L)
Helen Hughes (F)
14
64 pts
Sub 7 II 8014.8m
Dan Burpee (H)
Peter Skene (H)
Martin Pennel (L)
Sam White new (L)
BeckyLindsay (F)
15
63 pts
Team Oarsome III 7999m
Nick Rockliff (H)
Graham Todd (H)
Dave "Ding Dong" Bell (H)
Elchemist (L)
Catherine Sutherland (F)
16
62 pts
Taff Attack Racing I 7964.6m
Phil Tilley (H)
Shaw Goodwin (H)
Chris Adams (H)
Kev Owen (L)
Helen Tilley (F)
17
61 pts
Sub 7 III 7955.6m
Warren Matthews (H)
kieron casey (H)
Jonathan Turns (H)
Simon Barnes (L)
Carol Woodward (F)
18
60 pts
Free Spirits IV 7947.6m
Robert Baldwin (H)
BartMan (H)
Mark Evans (H)
Gerard Robinson (L)
Judit Nagy (F)
19
59 pts
Forum Flyers I 7945.2m
Peter Byrne (H)
Al Hallberg (H)
Will Haskell (L)
Kris Kuzniar (L)
Grace Malacrida (F)
20
58 pts
Age Without Limits II 7914.4m
Mark Keown (H)
Gerald Saalfeld (H)
Nico Beek (H)
Vincent Brunning (L)
Susan Janssen (F)
21
57 pts
Sub 7 IV 7858.2m
Tony Green (H)
Gordon McKellar (H)
_Hennie Martini (H)
Jef Hutchby (L)
Suemog (F)
22
56 pts
Team Oarsome IV 7811m
Andy Burrows (H)
John Van Blom (H)
Jon Bone (H)
Matt Newman (L)
Kay Hughes (F)
23
55 pts
MAD IV 7797.8m
GrahamP (H)
Matt M (H)
Jon Goodall (H)
Pantin Heavilee (L)
EllieP (F)
24
54 pts
RowPro Rowers I 7792m
chad_goss (H)
Joe Vanischak (H)
John Neufeldt (H)
Gary Daugherty (L)
Laura Erhart (F)
25
53 pts
Independent II 7742.8m
Andy "Ginster" Gould (H)
Michael R (H)
Dave Hall (H)
Alan Strang (L)
Jackie Hicks (F)
26
52 pts
Free Spirits V 7738.6m
Seb Miller (H)
Jonny Lear (H)
Thomas W-P (H)
Peter Tullett (L)
Ann K. Seidman (F)
27
51 pts
Forum Flyers II 7731m
Raoul Wiart (H)
Kiwi (H)
Marc Blackburn (L)
John Ferdinando (L)
Shirley (F)
28
50 pts
Sub 7 V 7674m
Rick Duffield (H)
Zax (H)
_Rowland Hills [S7] (H)
Barry Turner (L)
Susan Young (F)
29
49 pts
Age Without Limits III 7670m
john choice (H)
Joshua Picard (H)
graham maddison (H)
Bram Jagt (L)
LuanneM (F)
30
48 pts
The Eh! Team I 7652.6m
David Chmilowskyj (Eh!) (H)
Walter Field (H)
Mike Hagen (L)
Kirk (L)
Tania Cunningham (F)
31
47 pts
Free Spirits VI 7628.4m
Steve Smith (H)
George Weekes (H)
Dan Apps (H)
David Plumb (L)
Gaye McOnie (F)
32
46 pts
Sub 7 VI 7599.2m
Rod Chinn HWT (SUB7) (H)
Ant Stansbie (H)
GeorgeBingham (H)
Davidaldridge (L)
Liz Green (F)
33
45 pts
Team Oarsome V 7597.2m
Dave Speed (H)
Ash (H)
Rocket (H)
Graham Hall (L)
little weed TO (F)
34
44 pts
Free Spirits VII 7578m
Neil Pridham (H)
Jesper Theil Hansen (H)
Felton Humble (H)
Steve F. (L)
Denise Jones (F)
35
43 pts
E.R.G. II 7577.4m
Claudio Varamo (H)
Emanuele Di Raffaele (H)
Massimiliano De Rosa (H)
Andrea Colletta (L)
Ilaria Vergara (F)
36
42 pts
The Banana Boat I 7551.6m
Little Phill2 (H)
colin culyer (H)
Little Chris (L)
Little Malcolm (L)
KerryB (F)
37
41 pts
Free Spirits VIII 7524.8m
William Docter (H)
alan wisniewski (H)
Gifford Lewis (H)
kingy2 (L)
Anita Calcraft (F)
38
40 pts
Sub 7 VII 7509.2m
Paul McNeill (H)
DLCIanN (H)
Mike Wrenn (H)
Matthew Wood (L)
Dona Hall (F)
39
39 pts
Forum Flyers III 7467.6m
Chris Whale (H)
The Ref (L)
Ben Rea (L)
Rick Bayko (L)
Taru Calonius (F)
40
38 pts
Age Without Limits IV 7453.4m
James Herbison (H)
Jean-Marc Hurni (H)
NC Stanley (H)
Mike Bardee (L)
Robyn Huttenmeister (F)
41
37 pts
Free Spirits IX 7439.8m
Jonathan Stelling (H)
Steve Blogg (H)
David Taylor (H)
Roger Bangay (L)
Kate Wakeford (F)
42
36 pts
Paddy Power II 7407.8m
Paddy (H)
DJMarks (H)
Keith Pacey (H)
Joe A Keating (L)
fie (F)
43
35 pts
Free Spirits X 7383m
Tim Slade (H)
Phil Hewitt (H)
Andrew Stanway (H)
kester (L)
Rita Monde (F)
44
34 pts
Age Without Limits V 7363.8m
Vaclav Brazda (H)
David Newton (H)
Thomas O'Keefe (H)
J. Arthur Sholz (L)
Natalie Griffin (F)
45
33 pts
E.R.G. III 7358.2m
Luigi D' Ottavio (H)
maurizio varchetta (H)
Marco Raspa (L)
Adriano Durante (L)
paola pinto (F)
46
32 pts
RowPro Rowers II 7315.4m
Tom Zalmstra (H)
Gerhard (H)
Dave Moores (H)
Andrew Baines (L)
Pam Loeffen (F)
47
31 pts
Independent III 7304.6m
Bob Lee (H)
Snail Space (H)
John Rupp (L)
Matteo (L)
Kinley Gregg (F)
48
30 pts
Age Without Limits VI 7298.4m
Randy Locke (H)
John Carter (H)
john.probasco (H)
Pollyb (L)
Cynthia Runia (F)
49
29 pts
DLCBromsgrove I 7292.8m
DLCColinB (H)
DLCPeteM (H)
DLCAndyS (L)
DLCAndyW (L)
DLCLizG (F)
50
28 pts
Age Without Limits VII 7256m
David Janssen (H)
Steve Motzny (H)
Kalev Vapper (H)
Gene Kelley (L)
Libby Jones (F)
51
27 pts
MAD V 7244m
Super Kirky (H)
Steve Price (L)
Stuart Mc (L)
Jemma C (F)
siobhan w (F)
52
26 pts
Free Spirits XI 7218.8m
Paul Victory (H)
Chris Bollen (H)
jkathios (H)
Nigel Scott (L)
Linzi Johnston (F)
53
25 pts
Age Without Limits VIII 7208.8m
Charlie Picard (H)
Tony Walsh (H)
Patrick Connors (H)
Colin S Jones (L)
Greta Vaus (F)
54
24 pts
E.R.G. IV 7174.4m
andrea lelio (H)
Giovanni Ciccu (H)
Danilo Rovelli (H)
fabrizio maniscalco (L)
katia mercurio (F)
55
23 pts
Free Spirits XII 7135.6m
Richard Gamble (H)
Trevor Jones (H)
steve hill (H)
kurt (L)
Tamsin W-P (F)
56
22 pts
RowPro Rowers III 7117.2m
Les Whitaker (H)
James Steiger (H)
Marc Thompson (H)
Bill Burke (L)
Anne Badanes (F)
57
21 pts
Forum Flyers IV 7116.2m
Mikael Calonius (H)
Tom Rawls (H)
Paul Galliford (H)
Steve G (L)
Debbie Barber (F)
58
20 pts
Age Without Limits IX 7080.6m
Dave Lukasik (H)
Eddie Woodard (H)
Cabray (H)
Joe Gutstadt (L)
Michelle O'Keefe (F)
59
19 pts
Sub 7 VIII 7064.8m
John Hallas (H)
AndrewPJones (H)
_Dougie Lawson [S7] (H)
Birkyboy (L)
KIm Edmunds (F)
60
18 pts
RowPro Rowers IV 7017.6m
Ralph Werner (H)
Stephen Gower (H)
Mark West (H)
Antonio Carlos Cardoso (L)
Margie Davis (F)
61
17 pts
Age Without Limits X 6975m
Chuck Rogge (H)
Gordon Cantlay (H)
David R. Herz (H)
Sander Vaus (L)
Maryann Donnelly (F)
62
16 pts
Age Without Limits XI 6903.2m
Ted Halverson (H)
Gustavo Grodnitzky (H)
Richard Goff (H)
Bert Keel (L)
Eva Jacobs (F)
63
15 pts
Free Spirits XIII 6891.2m
Keith Pritchard (H)
Paul Gould (H)
Gregor Andrews (H)
Philip Price (L)
Julie Hall (F)
64
14 pts
E.R.G. V 6845.6m
Roberto Iori (H)
roberto proietti (H)
davide.nasso (L)
Bruno Ciucciarelli (L)
manuela uccello (F)
65
13 pts
Forum Flyers V 6804.8m
Kim Calonius (H)
John Stock (H)
shane shaw (H)
Arno Calonius (L)
Kathy Pollet (F)
66
12 pts
Free Spirits XIV 6775.4m
Jon Killeen (H)
owain_thomas (H)
Tom Begley (H)
Wayne Gallasch (L)
deb bettinson (F)
67
11 pts
DLCBromsgrove II 6705.8m
DLCWillC (H)
DLCMattH (H)
DLCJohnW (L)
DLCKimE (L)
DLCJudithE (F)
68
10 pts
Age Without Limits XII 6656m
eugene pons (H)
Jim McLoughlin (H)
Edward Maros (H)
mjpermuth (L)
Beth McFadden (F)
69
9 pts
Free Spirits XV 6630m
chris archer (H)
Alistair Slade (H)
Graham Webber (H)
Richard Elston (L)
Lisa Docter (F)
70
8 pts
Age Without Limits XIII 6541.4m
John Rule (H)
Ronald Head (H)
Murphy Pepper (H)
Sarah Keel (L)
JudithWilkinson (F)
71
7 pts
Age Without Limits XIV 6480.8m
UBY (H)
David Howells (H)
Peter-Fitzgerald (H)
Christine Hurni (L)
Jennifer Abbott (F)
72
6 pts
E.R.G. VI 6440m
daniele perilli (H)
sergio pepe (H)
pasquale pignataro (H)
giampaolo cui (L)
silvia demaria (F)
73
5 pts
DLCBromsgrove III 6176.8m
DLCPaulStamps (H)
DLCMikeS (H)
DLCTheresaP (L)
DLCJuliaJ (F)
DLCAnnF (F)
74
4 pts
Free Spirits XVI 6034m
Brian Griffiths (H)
truronian63 (H)
Stephen Scarfe (H)
Beryl Archer (L)
Anna Farmer (F)
75
3 pts
Age Without Limits XV 5963.2m
John Via (H)
Larry Charles (H)
Siim Vaus (H)
Kasper Vaus (L)
Darlene_Brennan (F)
76
2 pts
DLCBromsgrove IV 5818.6m
DLCKimW (L)
DLCRuthM (F)
DLCNatalieS (F)
DLCLucyW (F)
DLCJosieS (F)
77
1 pt
E.R.G. VII 5490m
fabio falanga (H)
maurizio cimaglia (L)
daniela celli (L)
elena morgioni (F)
rosa maria piperata (F)
78Lowveld IRC I8685m
_Andreas van Tonder (H)
 
79Hell on the Hudson I8399m
Kyle Peabody (L)
 
80The Tsotsies I8051m
Gustav Smook (L)
 
81C2TweetCrew I7927m
Herman de Boer (L)
 
82S§udespinning Estonia I7853m
Aivar Vaus (H)
 
83AIRC I7850m
Iain Mackie (H)
 
84Air Products I7773m
AP Dave S (H)
Andy Bellis (H)
Aidan Lowson (H)
 
85Red Line Rowers I7753m
Michael Anderson (H)
Andy Hall (L)
 
86FIRT I7749m
Thierry GOURSOLLE (H)
 
87Paddy Power III7527.2m
JohnnyP (H)
Gerry Keating (H)
Barry bazza59 Reynor (H)
Steve Burrows (L)
88Air Products II7496m
Graeme Wilson (H)
 
89Taff Attack Racing II7405m
Gwyn Samuel (H)
Des Richardson (H)
Chippy (H)
Carla Stein (seat5) (F)
90Paddy Power IV7345m
Keith Connolly (L)
 
91Dutch RowPros I7202.5m
Kees Verhoeven (H)
Annie Tak (F)
 
92Sub 7 IX7114.7m
Matt Brown (H)
Allan Moltmaker (H)
Darin (H)
Heidib (F)
93Scotland the Wave I6995m
Alistair Black (L)
 
94Gee Crew I6944m
Funkyrower (H)
Little Jimmy (H)
 
95Team Rowbo I6933.3m
Dave Hafner (H)
Andy Rutkiewic (H)
kamdo (k mikesell) (L)
 
96#TokyRow I6815m
Rose Metalli (L)
 
97The Eh! Team II6773m
Trevor Reeves (H)
Charles Kaiser (H)
John Cousins (L)
Anna Bonga (F)
98Taff Attack Racing III6738.2m
Paul Venables (H)
Adrian Millar (H)
Brendin (H)
Christine Goodwin (F)
99The Banana Boat II6677m
Little Ian (H)
Little Lee (H)
Jack Mayor (L)
Lizb (F)
100Sub 7 X6580.3m
Russell Gardener (H)
Richard Hall (H)
Wendy Matthews (F)
 
101Independent IV6578m
Steve Cytrynowicz (H)
Rocco (L)
 
102Age Without Limits XVI6491.3m
jon moore (H)
John Stahl (H)
Steve Austin (H)
 
103RowPro Rowers V6474.5m
Pete Loeffen (L)
Ellen Dollar (F)
 
104Forum Flyers VI5935.3m
PaulH (H)
Richard Haines (H)
Dan Farmer (L)
 
105Team Oarsome VI5879m
Jemma Hall (L)
 
106Age Without Limits XVII5796.5m
Pat_Walsh (H)
Jeff Kelley (H)
 

The Cross-Team Challenge is not supported or endorsed by Concept 2.
Site written by Daren Chandisingh. Please post any problems on the UK Concept 2 forum.

Valid XHTML 1.0 Transitional